Indianapolis, Indiana
Traffic Map
Current Weather Conditions
Indianapolis, Indiana
Overcast Thunderstorm
Overcast
14°
Feels Like: 14°
Wind Chill: 14° Ceiling: 3500
Heat Index: 14° Visibility: 3mi
Dew Point: 13° Wind: 7mph
Humidity: 96% Direction: 70° (ENE)
Pressure: 29.87in Gusts: 0mph
Raw Report DataKIND 290615Z 07006KT 3SM TS BR BKN035CB OVC170 14/13 A2987 RMK AO2 LTG DSNT SE-SW TSB10 PRESFR FRQ LTGICCG VC SE-SW TS SE-SW MOV NE T01390133 $
Traffic Incident Summary
Active as of:
Severity:
Category:
InformationThere was an issue retrieving the traffic information for this location. Please try a different location or try again shortly.
Advertisements
Track Severe Weather on mobile